createdAt,value
2019-02-17T00:00:35.232Z,83.58
2019-02-17T00:01:35.240Z,83.58
2019-02-17T00:02:36.063Z,83.68
2019-02-17T00:03:35.192Z,83.89
2019-02-17T00:04:35.202Z,83.68
2019-02-17T00:05:35.265Z,83.78
2019-02-17T00:06:35.162Z,83.47
2019-02-17T00:07:35.149Z,83.68
2019-02-17T00:08:35.174Z,83.68
2019-02-17T00:09:35.118Z,83.78
2019-02-17T00:10:35.124Z,83.82
2019-02-17T00:11:35.099Z,84.20
2019-02-17T00:12:35.085Z,84.20
2019-02-17T00:13:35.220Z,83.72
2019-02-17T00:14:35.064Z,84.61
2019-02-17T00:15:35.059Z,84.23
2019-02-17T00:16:35.132Z,84.55
2019-02-17T00:17:35.038Z,84.23
2019-02-17T00:18:35.046Z,84.65
2019-02-17T00:19:35.008Z,84.55
2019-02-17T00:20:34.998Z,84.75
2019-02-17T00:21:34.988Z,84.34
2019-02-17T00:22:34.992Z,84.55
2019-02-17T00:23:34.987Z,84.23
2019-02-17T00:24:34.951Z,84.86
2019-02-17T00:25:34.966Z,84.86
2019-02-17T00:26:34.954Z,84.65
2019-02-17T00:27:34.929Z,84.44
2019-02-17T00:28:34.922Z,84.41
2019-02-17T00:29:34.929Z,84.44
2019-02-17T00:30:34.898Z,84.82
2019-02-17T00:31:34.913Z,84.55
2019-02-17T00:32:34.891Z,84.51
2019-02-17T00:33:34.858Z,83.72
2019-02-17T00:34:34.855Z,83.99
2019-02-17T00:35:34.867Z,84.20
2019-02-17T00:36:34.849Z,84.23
2019-02-17T00:37:34.822Z,84.34
2019-02-17T00:38:34.811Z,84.09
2019-02-17T00:39:34.797Z,83.99
2019-02-17T00:40:34.803Z,84.09
2019-02-17T00:41:34.768Z,84.55
2019-02-17T00:42:34.788Z,84.44
2019-02-17T00:43:34.744Z,84.34
2019-02-17T00:44:34.739Z,84.55
2019-02-17T00:45:34.729Z,84.23
2019-02-17T00:46:34.813Z,84.65
2019-02-17T00:47:34.739Z,84.65
2019-02-17T00:48:34.719Z,84.75
2019-02-17T00:49:35.567Z,84.34
2019-02-17T00:50:34.684Z,84.34
2019-02-17T00:51:34.665Z,84.23
2019-02-17T00:52:34.650Z,84.03
2019-02-17T00:53:34.678Z,84.59
2019-02-17T00:54:34.647Z,84.86
2019-02-17T00:55:34.616Z,84.86
2019-02-17T00:56:34.656Z,85.00
2019-02-17T00:57:34.595Z,84.86
2019-02-17T00:58:34.588Z,84.86
2019-02-17T00:59:34.597Z,85.28
2019-02-17T01:00:34.576Z,84.65
2019-02-17T01:01:34.559Z,85.52
2019-02-17T01:02:34.540Z,85.83
2019-02-17T01:03:34.538Z,85.83
2019-02-17T01:04:34.545Z,85.63
2019-02-17T01:05:34.511Z,85.49
2019-02-17T01:06:34.507Z,85.42
2019-02-17T01:07:34.497Z,85.83
2019-02-17T01:08:34.538Z,85.63
2019-02-17T01:09:34.495Z,85.21
2019-02-17T01:10:34.462Z,85.52
2019-02-17T01:11:34.541Z,85.42
2019-02-17T01:12:34.461Z,85.83
2019-02-17T01:13:34.426Z,85.63
2019-02-17T01:14:34.410Z,85.38
2019-02-17T01:15:34.403Z,85.42
2019-02-17T01:16:34.454Z,85.42
2019-02-17T01:17:34.378Z,85.52
2019-02-17T01:18:34.371Z,85.42
2019-02-17T01:19:35.076Z,85.63
2019-02-17T01:20:34.377Z,85.83
2019-02-17T01:21:35.070Z,85.63
2019-02-17T01:22:34.333Z,85.31
2019-02-17T01:23:34.346Z,86.04
2019-02-17T01:24:34.301Z,85.83
2019-02-17T01:25:35.075Z,85.73
2019-02-17T01:26:34.311Z,85.83
2019-02-17T01:27:34.269Z,86.04
2019-02-17T01:28:34.265Z,86.19
2019-02-17T01:29:34.276Z,85.94
2019-02-17T01:30:34.304Z,85.94
2019-02-17T01:31:34.223Z,85.77
2019-02-17T01:32:34.236Z,85.94
2019-02-17T01:33:34.236Z,86.04
2019-02-17T01:34:34.191Z,86.08
2019-02-17T01:35:34.179Z,85.25
2019-02-17T01:36:34.166Z,85.67
2019-02-17T01:37:34.159Z,85.35
2019-02-17T01:38:34.142Z,85.67
2019-02-17T01:39:34.157Z,85.56
2019-02-17T01:40:34.126Z,85.35
2019-02-17T01:41:34.125Z,86.08
2019-02-17T01:42:34.103Z,86.29
2019-02-17T01:43:34.092Z,85.88
2019-02-17T01:44:34.109Z,86.22
2019-02-17T01:45:34.085Z,85.88
2019-02-17T01:46:34.090Z,86.29
2019-02-17T01:47:34.042Z,86.12
2019-02-17T01:48:34.029Z,86.12
2019-02-17T01:49:34.033Z,86.02
2019-02-17T01:50:34.017Z,85.71
2019-02-17T01:51:34.003Z,85.71
2019-02-17T01:52:34.106Z,86.02
2019-02-17T01:53:34.013Z,86.02
2019-02-17T01:54:33.964Z,86.12
2019-02-17T01:55:34.018Z,85.91
2019-02-17T01:56:33.950Z,86.12
2019-02-17T01:57:33.936Z,85.91
2019-02-17T01:58:33.988Z,86.12
2019-02-17T01:59:33.936Z,86.02
2019-02-17T02:00:33.901Z,86.22
2019-02-17T02:01:33.890Z,86.22
2019-02-17T02:02:33.881Z,86.65
2019-02-17T02:03:33.870Z,86.85
2019-02-17T02:04:33.881Z,86.85
2019-02-17T02:05:33.843Z,86.75
2019-02-17T02:06:33.836Z,86.54
2019-02-17T02:07:33.829Z,86.65
2019-02-17T02:08:33.816Z,86.65
2019-02-17T02:09:33.824Z,86.65
2019-02-17T02:10:33.835Z,86.75
2019-02-17T02:11:33.784Z,86.68
2019-02-17T02:12:33.769Z,86.65
2019-02-17T02:13:33.759Z,86.75
2019-02-17T02:14:33.764Z,86.89
2019-02-17T02:15:33.759Z,86.68
2019-02-17T02:16:33.769Z,86.68
2019-02-17T02:17:33.711Z,86.68
2019-02-17T02:18:33.724Z,86.89
2019-02-17T02:19:33.689Z,86.68
2019-02-17T02:20:33.680Z,86.89
2019-02-17T02:21:33.692Z,86.89
2019-02-17T02:22:33.689Z,86.58
2019-02-17T02:23:33.658Z,86.47
2019-02-17T02:24:33.634Z,86.43
2019-02-17T02:25:33.683Z,86.43
2019-02-17T02:26:33.635Z,86.58
2019-02-17T02:27:33.603Z,86.68
2019-02-17T02:28:33.648Z,86.54
2019-02-17T02:29:40.670Z,86.54
2019-02-17T02:30:34.686Z,86.54
2019-02-17T02:31:33.575Z,86.65
2019-02-17T02:32:33.554Z,86.68
2019-02-17T02:33:33.538Z,86.65
2019-02-17T02:34:33.528Z,86.75
2019-02-17T02:35:33.513Z,86.68
2019-02-17T02:36:33.527Z,86.65
2019-02-17T02:37:33.495Z,86.54
2019-02-17T02:38:33.607Z,86.54
2019-02-17T02:39:33.507Z,86.54
2019-02-17T02:40:33.520Z,86.43
2019-02-17T02:41:34.965Z,86.22
2019-02-17T02:42:33.465Z,86.65
2019-02-17T02:43:33.418Z,86.85
2019-02-17T02:44:33.528Z,86.85
2019-02-17T02:45:33.405Z,86.33
2019-02-17T02:46:33.395Z,86.60
2019-02-17T02:47:33.382Z,86.54
2019-02-17T02:48:33.403Z,86.85
2019-02-17T02:49:33.383Z,86.65
2019-02-17T02:50:33.355Z,86.65
2019-02-17T02:51:33.335Z,86.65
2019-02-17T02:52:33.334Z,86.54
2019-02-17T02:53:33.319Z,86.43
2019-02-17T02:54:33.351Z,86.43
2019-02-17T02:55:33.291Z,86.54
2019-02-17T02:56:33.283Z,86.22
2019-02-17T02:57:33.270Z,86.33
2019-02-17T02:58:33.264Z,86.75
2019-02-17T02:59:33.260Z,86.43
2019-02-17T03:00:33.264Z,86.65
2019-02-17T03:01:33.244Z,86.43
2019-02-17T03:02:33.255Z,86.33
2019-02-17T03:03:33.221Z,86.33
2019-02-17T03:04:33.207Z,86.43
2019-02-17T03:05:33.271Z,86.85
2019-02-17T03:06:33.197Z,86.54
2019-02-17T03:07:33.161Z,86.37
2019-02-17T03:08:33.218Z,86.33
2019-02-17T03:09:33.136Z,86.47
2019-02-17T03:10:33.123Z,86.47
2019-02-17T03:11:33.144Z,86.47
2019-02-17T03:12:33.106Z,86.58
2019-02-17T03:13:33.091Z,86.68
2019-02-17T03:14:33.108Z,86.58
2019-02-17T03:15:33.066Z,86.89
2019-02-17T03:16:33.085Z,86.68
2019-02-17T03:17:33.052Z,87.62
2019-02-17T03:18:33.059Z,86.58
2019-02-17T03:19:33.035Z,86.58
2019-02-17T03:20:33.016Z,87.10
2019-02-17T03:21:33.031Z,86.68
2019-02-17T03:22:33.011Z,87.10
2019-02-17T03:23:32.979Z,87.20
2019-02-17T03:24:32.968Z,86.79
2019-02-17T03:25:32.956Z,87.62
2019-02-17T03:26:32.965Z,87.35
2019-02-17T03:27:33.108Z,86.99
2019-02-17T03:28:32.937Z,87.10
2019-02-17T03:29:32.963Z,87.04
2019-02-17T03:30:32.932Z,87.45
2019-02-17T03:31:33.063Z,87.55
2019-02-17T03:32:32.894Z,87.52
2019-02-17T03:33:32.961Z,87.35
2019-02-17T03:34:32.894Z,87.24
2019-02-17T03:35:32.851Z,87.93
2019-02-17T03:36:32.841Z,87.35
2019-02-17T03:37:32.829Z,87.87
2019-02-17T03:38:32.829Z,87.14
2019-02-17T03:39:32.828Z,87.35
2019-02-17T03:40:32.816Z,87.87
2019-02-17T03:41:32.814Z,87.35
2019-02-17T03:42:32.801Z,87.24
2019-02-17T03:43:32.758Z,87.97
2019-02-17T03:44:32.768Z,87.35
2019-02-17T03:45:32.759Z,87.87
2019-02-17T03:46:32.733Z,87.97
2019-02-17T03:47:32.715Z,87.76
2019-02-17T03:48:32.702Z,88.12
2019-02-17T03:49:32.692Z,88.53
2019-02-17T03:50:32.683Z,88.01
2019-02-17T03:51:32.703Z,88.12
2019-02-17T03:52:32.665Z,88.22
2019-02-17T03:53:32.649Z,88.22
2019-02-17T03:54:32.770Z,88.53
2019-02-17T03:55:32.628Z,88.43
2019-02-17T03:56:32.656Z,88.12
2019-02-17T03:57:32.665Z,88.22
2019-02-17T03:58:32.620Z,88.32
2019-02-17T03:59:32.581Z,88.64
2019-02-17T04:00:32.571Z,88.95
2019-02-17T04:01:32.675Z,88.89
2019-02-17T04:02:32.556Z,88.89
2019-02-17T04:03:32.541Z,88.78
2019-02-17T04:04:32.529Z,88.99
2019-02-17T04:05:32.520Z,88.78
2019-02-17T04:06:32.534Z,88.89
2019-02-17T04:07:32.510Z,88.99
2019-02-17T04:08:32.487Z,88.89
2019-02-17T04:09:32.544Z,88.47
2019-02-17T04:10:32.647Z,88.99
2019-02-17T04:11:32.461Z,88.57
2019-02-17T04:12:32.440Z,88.68
2019-02-17T04:13:32.458Z,89.31
2019-02-17T04:14:32.417Z,89.83
2019-02-17T04:15:32.409Z,89.83
2019-02-17T04:16:32.391Z,89.41
2019-02-17T04:17:32.387Z,89.51
2019-02-17T04:18:32.370Z,89.51
2019-02-17T04:19:32.383Z,89.78
2019-02-17T04:20:32.363Z,89.78
2019-02-17T04:21:33.465Z,89.47
2019-02-17T04:22:32.342Z,89.58
2019-02-17T04:23:32.318Z,89.58
2019-02-17T04:24:32.406Z,89.37
2019-02-17T04:25:32.297Z,88.95
2019-02-17T04:26:32.286Z,88.32
2019-02-17T04:27:32.285Z,88.85
2019-02-17T04:28:32.266Z,88.85
2019-02-17T04:29:32.253Z,88.99
2019-02-17T04:30:32.272Z,88.75
2019-02-17T04:31:32.245Z,88.78
2019-02-17T04:32:32.221Z,88.78
2019-02-17T04:33:32.211Z,88.78
2019-02-17T04:34:32.203Z,88.89
2019-02-17T04:35:32.187Z,88.68
2019-02-17T04:36:32.201Z,88.89
2019-02-17T04:37:32.168Z,88.57
2019-02-17T04:38:32.157Z,88.68
2019-02-17T04:39:32.145Z,88.78
2019-02-17T04:40:32.382Z,89.31
2019-02-17T04:41:32.140Z,89.20
2019-02-17T04:42:32.108Z,89.31
2019-02-17T04:43:32.136Z,89.31
2019-02-17T04:44:32.089Z,89.31
2019-02-17T04:45:32.078Z,89.31
2019-02-17T04:46:32.093Z,89.72
2019-02-17T04:47:32.075Z,89.72
2019-02-17T04:48:32.076Z,90.03
2019-02-17T04:49:32.044Z,90.56
2019-02-17T04:50:32.028Z,90.56
2019-02-17T04:51:32.017Z,90.45
2019-02-17T04:52:32.022Z,90.77
2019-02-17T04:53:32.023Z,90.66
2019-02-17T04:54:32.176Z,90.77
2019-02-17T04:55:31.975Z,90.56
2019-02-17T04:56:31.964Z,90.56
2019-02-17T04:57:32.030Z,90.66
2019-02-17T04:58:31.940Z,90.66
2019-02-17T04:59:31.927Z,90.45
2019-02-17T05:00:39.718Z,90.56
2019-02-17T05:01:32.902Z,90.77
2019-02-17T05:02:31.892Z,90.77
2019-02-17T05:03:31.904Z,90.77
2019-02-17T05:04:31.866Z,90.77
2019-02-17T05:05:31.864Z,90.66
2019-02-17T05:06:31.864Z,90.87
2019-02-17T05:07:31.849Z,90.56
2019-02-17T05:08:31.863Z,90.66
2019-02-17T05:09:31.816Z,90.77
2019-02-17T05:10:31.810Z,90.25
2019-02-17T05:11:31.812Z,90.35
2019-02-17T05:12:31.813Z,90.45
2019-02-17T05:13:31.900Z,90.45
2019-02-17T05:14:31.766Z,90.35
2019-02-17T05:15:31.761Z,90.35
2019-02-17T05:16:31.797Z,90.45
2019-02-17T05:17:31.767Z,90.35
2019-02-17T05:18:32.598Z,90.14
2019-02-17T05:19:31.704Z,90.56
2019-02-17T05:20:31.693Z,91.18
2019-02-17T05:21:31.684Z,90.77
2019-02-17T05:22:31.669Z,90.77
2019-02-17T05:23:31.682Z,90.77
2019-02-17T05:24:31.672Z,90.56
2019-02-17T05:25:31.641Z,90.77
2019-02-17T05:26:31.632Z,90.45
2019-02-17T05:27:32.599Z,90.77
2019-02-17T05:28:31.609Z,90.35
2019-02-17T05:29:31.615Z,90.56
2019-02-17T05:30:31.587Z,90.35
2019-02-17T05:31:31.587Z,90.87
2019-02-17T05:32:31.563Z,90.39
2019-02-17T05:33:31.550Z,90.87
2019-02-17T05:34:31.556Z,90.77
2019-02-17T05:35:31.567Z,90.77
2019-02-17T05:36:31.563Z,90.56
2019-02-17T05:37:31.525Z,90.56
2019-02-17T05:38:31.499Z,90.66
2019-02-17T05:39:31.488Z,90.77
2019-02-17T05:40:31.574Z,90.77
2019-02-17T05:41:31.480Z,90.77
2019-02-17T05:42:31.478Z,90.56
2019-02-17T05:43:31.448Z,91.33
2019-02-17T05:44:31.498Z,91.08
2019-02-17T05:45:31.422Z,91.08
2019-02-17T05:46:31.437Z,90.87
2019-02-17T05:47:31.399Z,90.87
2019-02-17T05:48:31.387Z,90.87
2019-02-17T05:49:31.392Z,90.35
2019-02-17T05:50:31.370Z,90.87
2019-02-17T05:51:31.376Z,91.18
2019-02-17T05:52:31.348Z,91.18
2019-02-17T05:53:31.336Z,90.87
2019-02-17T05:54:31.320Z,90.60
2019-02-17T05:55:31.309Z,90.77
2019-02-17T05:56:31.306Z,90.77
2019-02-17T05:57:31.308Z,90.56
2019-02-17T05:58:31.277Z,90.56
2019-02-17T05:59:31.488Z,90.45
2019-02-17T06:00:31.304Z,90.56
2019-02-17T06:01:31.258Z,90.66
2019-02-17T06:02:31.318Z,90.87
2019-02-17T06:03:31.245Z,90.66
2019-02-17T06:04:31.216Z,90.66
2019-02-17T06:05:31.201Z,90.66
2019-02-17T06:06:31.189Z,90.87
2019-02-17T06:07:31.183Z,90.66
2019-02-17T06:08:31.168Z,90.56
2019-02-17T06:09:31.180Z,90.35
2019-02-17T06:10:31.164Z,90.35
2019-02-17T06:11:31.149Z,90.35
2019-02-17T06:12:31.126Z,90.66
2019-02-17T06:13:31.124Z,90.87
2019-02-17T06:14:31.107Z,90.66
2019-02-17T06:15:31.130Z,90.35
2019-02-17T06:16:31.091Z,90.56
2019-02-17T06:17:31.073Z,90.66
2019-02-17T06:18:31.059Z,90.87
2019-02-17T06:19:31.089Z,90.45
2019-02-17T06:20:31.037Z,90.87
2019-02-17T06:21:31.037Z,90.77
2019-02-17T06:22:31.019Z,90.77
2019-02-17T06:23:31.032Z,90.56
2019-02-17T06:24:31.017Z,90.00
2019-02-17T06:25:31.016Z,90.31
2019-02-17T06:26:30.993Z,90.20
2019-02-17T06:27:30.958Z,90.31
2019-02-17T06:28:30.980Z,90.41
2019-02-17T06:29:30.970Z,90.20
2019-02-17T06:30:30.972Z,90.52
2019-02-17T06:31:30.920Z,90.31
2019-02-17T06:32:30.904Z,90.41
2019-02-17T06:33:30.902Z,89.89
2019-02-17T06:34:30.896Z,89.78
2019-02-17T06:35:30.877Z,89.58
2019-02-17T06:36:30.906Z,89.75
2019-02-17T06:37:30.867Z,89.85
2019-02-17T06:38:30.841Z,89.64
2019-02-17T06:39:30.842Z,89.75
2019-02-17T06:40:30.837Z,89.75
2019-02-17T06:41:30.835Z,89.54
2019-02-17T06:42:30.875Z,89.32
2019-02-17T06:43:30.820Z,89.32
2019-02-17T06:44:30.783Z,89.54
2019-02-17T06:45:30.767Z,89.50
2019-02-17T06:46:30.766Z,89.12
2019-02-17T06:47:30.761Z,89.32
2019-02-17T06:48:30.766Z,89.43
2019-02-17T06:49:30.745Z,89.08
2019-02-17T06:50:32.797Z,89.29
2019-02-17T06:51:30.706Z,89.29
2019-02-17T06:52:30.732Z,89.29
2019-02-17T06:53:30.882Z,89.18
2019-02-17T06:54:31.608Z,89.25
2019-02-17T06:55:30.667Z,89.25
2019-02-17T06:56:30.709Z,89.45
2019-02-17T06:57:30.642Z,89.87
2019-02-17T06:58:30.647Z,89.66
2019-02-17T06:59:30.640Z,88.93
2019-02-17T07:00:30.602Z,88.89
2019-02-17T07:01:30.600Z,89.31
2019-02-17T07:02:30.581Z,89.41
2019-02-17T07:03:30.587Z,88.37
2019-02-17T07:04:30.582Z,88.12
2019-02-17T07:05:30.547Z,88.85
2019-02-17T07:06:30.537Z,88.75
2019-02-17T07:07:30.542Z,88.60
2019-02-17T07:08:30.567Z,88.33
2019-02-17T07:09:30.522Z,88.29
2019-02-17T07:10:30.491Z,88.43
2019-02-17T07:11:30.516Z,88.09
2019-02-17T07:12:31.117Z,87.98
2019-02-17T07:13:30.471Z,87.56
2019-02-17T07:14:30.486Z,87.56
2019-02-17T07:15:30.467Z,87.63
2019-02-17T07:16:30.428Z,87.63
2019-02-17T07:17:30.440Z,87.63
2019-02-17T07:18:30.417Z,87.52
2019-02-17T07:19:30.398Z,87.73
2019-02-17T07:20:30.385Z,87.84
2019-02-17T07:21:30.392Z,87.73
2019-02-17T07:22:30.379Z,87.59
2019-02-17T07:23:30.376Z,87.59
2019-02-17T07:24:30.334Z,86.86
2019-02-17T07:25:30.685Z,87.38
2019-02-17T07:26:30.371Z,87.17
2019-02-17T07:27:30.321Z,87.34
2019-02-17T07:28:30.287Z,86.93
2019-02-17T07:29:30.310Z,86.96
2019-02-17T07:30:30.269Z,86.82
2019-02-17T07:31:34.968Z,86.93
2019-02-17T07:32:31.338Z,86.51
2019-02-17T07:33:30.244Z,86.26
2019-02-17T07:34:30.228Z,85.95
2019-02-17T07:35:30.237Z,86.26
2019-02-17T07:36:30.242Z,86.16
2019-02-17T07:37:33.493Z,86.05
2019-02-17T07:38:30.188Z,85.64
2019-02-17T07:39:30.176Z,85.60
2019-02-17T07:40:30.160Z,85.81
2019-02-17T07:41:30.152Z,85.81
2019-02-17T07:42:30.161Z,86.12
2019-02-17T07:43:30.135Z,85.46
2019-02-17T07:44:30.150Z,85.25
2019-02-17T07:45:30.254Z,85.56
2019-02-17T07:46:30.130Z,85.77
2019-02-17T07:47:30.169Z,85.56
2019-02-17T07:48:30.085Z,85.56
2019-02-17T07:49:30.063Z,85.63
2019-02-17T07:50:30.068Z,85.83
2019-02-17T07:51:30.117Z,85.52
2019-02-17T07:52:30.066Z,85.21
2019-02-17T07:53:30.025Z,85.00
2019-02-17T07:54:30.033Z,84.86
2019-02-17T07:55:29.999Z,84.55
2019-02-17T07:56:29.982Z,84.34
2019-02-17T07:57:29.995Z,84.13
2019-02-17T07:58:29.967Z,84.09
2019-02-17T07:59:29.949Z,83.89
2019-02-17T08:00:29.948Z,83.99
2019-02-17T08:01:29.937Z,83.99
2019-02-17T08:02:29.944Z,83.64
2019-02-17T08:03:29.905Z,84.37
2019-02-17T08:04:29.951Z,84.43
2019-02-17T08:05:29.883Z,83.50
2019-02-17T08:06:29.871Z,83.15
2019-02-17T08:07:29.884Z,83.15
2019-02-17T08:08:29.865Z,83.25
2019-02-17T08:09:29.861Z,82.32
2019-02-17T08:10:29.853Z,82.08
2019-02-17T08:11:29.825Z,81.67
2019-02-17T08:12:29.822Z,81.56
2019-02-17T08:13:29.797Z,81.25
2019-02-17T08:14:29.788Z,81.21
2019-02-17T08:15:29.816Z,80.49
2019-02-17T08:16:29.810Z,80.80
2019-02-17T08:17:29.771Z,79.83
2019-02-17T08:18:29.746Z,79.94
2019-02-17T08:19:29.727Z,79.83
2019-02-17T08:20:29.733Z,80.15
2019-02-17T08:21:29.745Z,79.28
2019-02-17T08:22:29.706Z,79.38
2019-02-17T08:23:29.686Z,78.66
2019-02-17T08:24:29.673Z,78.42
2019-02-17T08:25:29.713Z,77.91
2019-02-17T08:26:29.647Z,78.01
2019-02-17T08:27:29.647Z,79.52
2019-02-17T08:28:29.659Z,79.72
2019-02-17T08:29:29.615Z,79.17
2019-02-17T08:30:29.617Z,79.17
2019-02-17T08:31:29.748Z,78.24
2019-02-17T08:32:29.591Z,78.62
2019-02-17T08:33:29.571Z,76.97
2019-02-17T08:34:29.567Z,76.97
2019-02-17T08:35:29.546Z,76.87
2019-02-17T08:36:29.574Z,75.60
2019-02-17T08:37:29.563Z,74.88
2019-02-17T08:38:29.522Z,74.77
2019-02-17T08:39:29.544Z,74.63
2019-02-17T08:40:29.515Z,74.02
2019-02-17T08:41:29.516Z,74.43
2019-02-17T08:42:29.506Z,73.98
2019-02-17T08:43:29.454Z,73.68
2019-02-17T08:44:29.452Z,73.78
2019-02-17T08:45:29.440Z,73.88
2019-02-17T08:46:29.462Z,72.75
2019-02-17T08:47:29.436Z,72.75
2019-02-17T08:48:29.412Z,72.61
2019-02-17T08:49:29.400Z,71.89
2019-02-17T08:50:29.385Z,71.69
2019-02-17T08:51:29.376Z,70.56
2019-02-17T08:52:29.353Z,71.24
2019-02-17T08:53:29.367Z,71.24
2019-02-17T08:54:29.331Z,71.04
2019-02-17T08:55:29.330Z,70.21
2019-02-17T08:56:29.316Z,69.70
2019-02-17T08:57:29.304Z,69.60
2019-02-17T08:58:29.499Z,69.26
2019-02-17T08:59:29.284Z,68.85
2019-02-17T09:00:29.296Z,68.43
2019-02-17T09:01:29.412Z,68.23
2019-02-17T09:02:29.244Z,67.20
2019-02-17T09:03:29.242Z,67.61
2019-02-17T09:04:29.301Z,67.61
2019-02-17T09:05:29.211Z,67.68
2019-02-17T09:06:29.232Z,67.71
2019-02-17T09:07:29.203Z,67.79
2019-02-17T09:08:29.185Z,67.48
2019-02-17T09:09:29.164Z,66.96
2019-02-17T09:10:29.153Z,66.86
2019-02-17T09:11:29.142Z,66.86
2019-02-17T09:12:29.363Z,66.83
2019-02-17T09:13:29.124Z,66.63
2019-02-17T09:14:29.129Z,66.52
2019-02-17T09:15:29.127Z,65.09
2019-02-17T09:16:29.097Z,65.39
2019-02-17T09:17:29.103Z,65.09
2019-02-17T09:18:29.148Z,64.75
2019-02-17T09:19:29.060Z,65.36
2019-02-17T09:20:29.050Z,65.36
2019-02-17T09:21:29.043Z,65.26
2019-02-17T09:22:29.059Z,64.75
2019-02-17T09:23:29.015Z,64.34
2019-02-17T09:24:29.009Z,64.44
2019-02-17T09:25:28.995Z,64.13
2019-02-17T09:26:29.690Z,64.10
2019-02-17T09:27:28.970Z,63.69
2019-02-17T09:28:28.980Z,63.39
2019-02-17T09:29:28.947Z,63.59
2019-02-17T09:30:28.954Z,63.69
2019-02-17T09:31:29.632Z,63.69
2019-02-17T09:32:28.919Z,63.18
2019-02-17T09:33:28.904Z,63.35
2019-02-17T09:34:28.961Z,63.46
2019-02-17T09:35:28.895Z,63.56
2019-02-17T09:36:28.867Z,63.56
2019-02-17T09:37:28.863Z,62.92
2019-02-17T09:38:28.858Z,62.30
2019-02-17T09:39:28.856Z,61.89
2019-02-17T09:40:28.849Z,61.79
2019-02-17T09:41:28.814Z,61.27
2019-02-17T09:42:28.854Z,61.89
2019-02-17T09:43:28.796Z,62.19
2019-02-17T09:44:28.792Z,61.76
2019-02-17T09:45:28.797Z,62.40
2019-02-17T09:46:28.764Z,61.45
2019-02-17T09:47:28.754Z,61.99
2019-02-17T09:48:28.740Z,61.35
2019-02-17T09:49:28.752Z,60.63
2019-02-17T09:50:28.718Z,61.55
2019-02-17T09:51:28.759Z,60.91
2019-02-17T09:52:28.699Z,61.66
2019-02-17T09:53:28.687Z,61.45
2019-02-17T09:54:28.686Z,60.63
2019-02-17T09:55:28.666Z,61.45
2019-02-17T09:56:28.693Z,60.84
2019-02-17T09:57:28.664Z,60.60
2019-02-17T09:58:28.746Z,59.89
2019-02-17T09:59:28.608Z,59.68
2019-02-17T10:00:28.605Z,59.66
2019-02-17T10:01:28.599Z,59.48
2019-02-17T10:02:28.606Z,59.58
2019-02-17T10:03:28.574Z,59.38
2019-02-17T10:04:28.555Z,59.45
2019-02-17T10:05:28.561Z,59.45
2019-02-17T10:06:28.539Z,59.55
2019-02-17T10:07:28.549Z,59.45
2019-02-17T10:08:28.541Z,59.04
2019-02-17T10:09:28.506Z,59.22
2019-02-17T10:10:28.489Z,58.81
2019-02-17T10:11:28.477Z,58.50
2019-02-17T10:12:28.465Z,59.32
2019-02-17T10:13:28.463Z,58.70
2019-02-17T10:14:28.472Z,57.68
2019-02-17T10:15:28.459Z,57.17
2019-02-17T10:16:28.425Z,57.07
2019-02-17T10:17:28.462Z,57.15
2019-02-17T10:18:28.409Z,56.87
2019-02-17T10:19:28.422Z,56.63
2019-02-17T10:20:28.427Z,56.43
2019-02-17T10:21:28.365Z,56.74
2019-02-17T10:22:28.356Z,56.74
2019-02-17T10:23:28.340Z,56.33
2019-02-17T10:24:28.355Z,56.43
2019-02-17T10:25:28.328Z,56.33
2019-02-17T10:26:28.307Z,56.12
2019-02-17T10:27:28.297Z,55.79
2019-02-17T10:28:28.287Z,55.49
2019-02-17T10:29:28.298Z,55.38
2019-02-17T10:30:28.256Z,55.18
2019-02-17T10:31:28.250Z,54.77
2019-02-17T10:32:37.126Z,54.46
2019-02-17T10:33:29.257Z,54.87
2019-02-17T10:34:28.223Z,54.44
2019-02-17T10:35:28.218Z,54.85
2019-02-17T10:36:28.235Z,54.74
2019-02-17T10:37:28.198Z,55.46
2019-02-17T10:38:28.201Z,56.07
2019-02-17T10:39:28.173Z,55.46
2019-02-17T10:40:28.156Z,55.66
2019-02-17T10:41:28.177Z,55.15
2019-02-17T10:42:28.129Z,54.64
2019-02-17T10:43:28.138Z,54.21
2019-02-17T10:44:28.117Z,55.02
2019-02-17T10:45:28.105Z,55.02
2019-02-17T10:46:28.087Z,54.31
2019-02-17T10:47:28.131Z,54.51
2019-02-17T10:48:28.086Z,54.28
2019-02-17T10:49:28.092Z,53.88
2019-02-17T10:50:28.048Z,53.59
2019-02-17T10:51:28.040Z,54.21
2019-02-17T10:52:28.019Z,53.57
2019-02-17T10:53:28.013Z,53.06
2019-02-17T10:54:28.000Z,53.27
2019-02-17T10:55:28.018Z,53.06
2019-02-17T10:56:27.979Z,52.86
2019-02-17T10:57:27.990Z,53.67
2019-02-17T10:58:27.948Z,53.16
2019-02-17T10:59:27.937Z,53.44
2019-02-17T11:00:27.930Z,53.85
2019-02-17T11:01:27.938Z,53.64
2019-02-17T11:02:27.912Z,53.55
2019-02-17T11:03:28.025Z,53.55
2019-02-17T11:04:27.885Z,53.14
2019-02-17T11:05:27.898Z,53.14
2019-02-17T11:06:27.878Z,52.93
2019-02-17T11:07:27.851Z,52.22
2019-02-17T11:08:27.834Z,52.09
2019-02-17T11:09:27.826Z,51.58
2019-02-17T11:10:27.844Z,52.29
2019-02-17T11:11:27.955Z,51.89
2019-02-17T11:12:27.799Z,52.20
2019-02-17T11:13:27.815Z,51.58
2019-02-17T11:14:27.764Z,51.46
2019-02-17T11:15:27.755Z,51.66
2019-02-17T11:16:27.744Z,51.05
2019-02-17T11:17:27.731Z,51.05
2019-02-17T11:18:27.729Z,51.56
2019-02-17T11:19:27.734Z,50.95
2019-02-17T11:20:27.707Z,51.43
2019-02-17T11:21:27.722Z,51.43
2019-02-17T11:22:27.688Z,52.35
2019-02-17T11:23:27.671Z,52.15
2019-02-17T11:24:28.660Z,51.43
2019-02-17T11:25:27.645Z,51.53
2019-02-17T11:26:27.633Z,51.33
2019-02-17T11:27:27.657Z,51.64
2019-02-17T11:28:27.604Z,51.13
2019-02-17T11:29:27.597Z,51.33
2019-02-17T11:30:27.697Z,51.00
2019-02-17T11:31:27.583Z,51.00
2019-02-17T11:32:27.569Z,50.62
2019-02-17T11:33:27.552Z,51.10
2019-02-17T11:34:27.553Z,51.10
2019-02-17T11:35:29.738Z,51.72
2019-02-17T11:36:27.521Z,51.72
2019-02-17T11:37:27.505Z,49.68
2019-02-17T11:38:27.510Z,49.76
2019-02-17T11:39:27.497Z,49.96
2019-02-17T11:40:27.515Z,49.65
2019-02-17T11:41:27.476Z,49.65
2019-02-17T11:42:27.478Z,48.64
2019-02-17T11:43:27.453Z,49.15
2019-02-17T11:44:27.431Z,49.65
2019-02-17T11:45:27.421Z,49.76
2019-02-17T11:46:27.443Z,49.65
2019-02-17T11:47:27.404Z,49.73
2019-02-17T11:48:27.405Z,49.76
2019-02-17T11:49:27.385Z,49.86
2019-02-17T11:50:27.380Z,49.73
2019-02-17T11:51:27.394Z,48.54
2019-02-17T11:52:27.371Z,48.72
2019-02-17T11:53:27.342Z,48.11
2019-02-17T11:54:27.328Z,48.00
2019-02-17T11:55:27.311Z,48.11
2019-02-17T11:56:27.310Z,47.80
2019-02-17T11:57:27.298Z,47.39
2019-02-17T11:58:27.302Z,47.60
2019-02-17T11:59:27.283Z,48.21
2019-02-17T12:00:27.396Z,48.21
2019-02-17T12:01:27.253Z,48.21
2019-02-17T12:02:27.239Z,48.11
2019-02-17T12:03:27.254Z,47.39
2019-02-17T12:04:27.210Z,47.17
2019-02-17T12:05:27.191Z,47.50
2019-02-17T12:06:27.209Z,46.98
2019-02-17T12:07:27.183Z,46.28
2019-02-17T12:08:27.160Z,46.25
2019-02-17T12:09:27.178Z,46.15
2019-02-17T12:10:27.142Z,46.86
2019-02-17T12:11:27.150Z,47.17
2019-02-17T12:12:27.118Z,46.97
2019-02-17T12:13:27.129Z,45.64
2019-02-17T12:14:27.096Z,45.72
2019-02-17T12:15:27.115Z,46.23
2019-02-17T12:16:36.517Z,46.44
2019-02-17T12:17:28.064Z,46.13
2019-02-17T12:18:27.057Z,45.32
2019-02-17T12:19:27.138Z,44.91
2019-02-17T12:20:27.045Z,45.42
2019-02-17T12:21:27.024Z,45.50
2019-02-17T12:22:27.004Z,46.01
2019-02-17T12:23:26.991Z,45.50
2019-02-17T12:24:26.976Z,44.68
2019-02-17T12:25:26.966Z,45.60
2019-02-17T12:26:26.984Z,45.98
2019-02-17T12:27:27.223Z,45.68
2019-02-17T12:28:26.954Z,45.05
2019-02-17T12:29:26.933Z,44.93
2019-02-17T12:30:26.964Z,44.70
2019-02-17T12:31:27.129Z,44.20
2019-02-17T12:32:26.928Z,43.59
2019-02-17T12:33:26.927Z,43.38
2019-02-17T12:34:26.874Z,43.08
2019-02-17T12:35:26.892Z,43.38
2019-02-17T12:36:26.847Z,44.70
2019-02-17T12:37:26.881Z,43.26
2019-02-17T12:38:26.842Z,43.87
2019-02-17T12:39:26.848Z,43.14
2019-02-17T12:40:26.830Z,42.31
2019-02-17T12:41:26.822Z,41.28
2019-02-17T12:42:26.778Z,41.44
2019-02-17T12:43:26.781Z,40.72
2019-02-17T12:44:26.798Z,39.48
2019-02-17T12:45:26.806Z,39.04
2019-02-17T12:46:26.738Z,38.82
2019-02-17T12:47:26.736Z,38.73
2019-02-17T12:48:26.707Z,38.91
2019-02-17T12:49:26.702Z,38.71
2019-02-17T12:50:26.742Z,38.40
2019-02-17T12:51:26.696Z,38.10
2019-02-17T12:52:26.720Z,36.79